sensor_id;sensor_type;location;lat;lon;timestamp;P1;durP1;ratioP1;P2;durP2;ratioP2
8572;SDS011;4324;42.012;24.872;2022-12-08T00:00:07;14.00;;;10.63;;
8572;SDS011;4324;42.012;24.872;2022-12-08T00:02:34;13.13;;;10.87;;
8572;SDS011;4324;42.012;24.872;2022-12-08T00:05:01;13.10;;;10.53;;
8572;SDS011;4324;42.012;24.872;2022-12-08T00:07:46;13.57;;;10.70;;
8572;SDS011;4324;42.012;24.872;2022-12-08T00:10:30;13.10;;;10.00;;
8572;SDS011;4324;42.012;24.872;2022-12-08T00:12:58;12.60;;;10.17;;
8572;SDS011;4324;42.012;24.872;2022-12-08T00:15:25;13.30;;;10.37;;
8572;SDS011;4324;42.012;24.872;2022-12-08T00:17:52;13.50;;;10.00;;
8572;SDS011;4324;42.012;24.872;2022-12-08T00:20:19;13.60;;;10.23;;
8572;SDS011;4324;42.012;24.872;2022-12-08T00:22:46;13.30;;;10.30;;
8572;SDS011;4324;42.012;24.872;2022-12-08T00:25:13;11.83;;;9.30;;
8572;SDS011;4324;42.012;24.872;2022-12-08T00:27:40;11.57;;;9.63;;
8572;SDS011;4324;42.012;24.872;2022-12-08T00:30:09;16.93;;;10.80;;
8572;SDS011;4324;42.012;24.872;2022-12-08T00:32:36;14.53;;;10.40;;
8572;SDS011;4324;42.012;24.872;2022-12-08T00:35:03;11.53;;;10.30;;
8572;SDS011;4324;42.012;24.872;2022-12-08T00:37:31;13.87;;;10.33;;
8572;SDS011;4324;42.012;24.872;2022-12-08T00:39:58;13.03;;;9.90;;
8572;SDS011;4324;42.012;24.872;2022-12-08T00:42:24;15.80;;;10.50;;
8572;SDS011;4324;42.012;24.872;2022-12-08T00:44:51;12.83;;;9.70;;
8572;SDS011;4324;42.012;24.872;2022-12-08T00:47:20;12.87;;;10.27;;
8572;SDS011;4324;42.012;24.872;2022-12-08T00:49:47;12.63;;;9.70;;
8572;SDS011;4324;42.012;24.872;2022-12-08T00:52:13;12.90;;;10.20;;
8572;SDS011;4324;42.012;24.872;2022-12-08T00:54:40;12.90;;;9.40;;
8572;SDS011;4324;42.012;24.872;2022-12-08T00:57:07;11.17;;;9.17;;
8572;SDS011;4324;42.012;24.872;2022-12-08T00:59:34;12.83;;;9.73;;
8572;SDS011;4324;42.012;24.872;2022-12-08T01:02:01;12.47;;;9.97;;
8572;SDS011;4324;42.012;24.872;2022-12-08T01:04:29;11.10;;;9.27;;
8572;SDS011;4324;42.012;24.872;2022-12-08T01:06:56;14.87;;;10.10;;
8572;SDS011;4324;42.012;24.872;2022-12-08T01:09:23;11.83;;;10.13;;
8572;SDS011;4324;42.012;24.872;2022-12-08T01:11:50;12.27;;;9.97;;
8572;SDS011;4324;42.012;24.872;2022-12-08T01:14:17;13.77;;;9.73;;
8572;SDS011;4324;42.012;24.872;2022-12-08T01:16:44;14.40;;;9.70;;
8572;SDS011;4324;42.012;24.872;2022-12-08T01:19:12;11.20;;;8.90;;
8572;SDS011;4324;42.012;24.872;2022-12-08T01:21:42;14.27;;;9.30;;
8572;SDS011;4324;42.012;24.872;2022-12-08T01:24:10;11.70;;;9.00;;
8572;SDS011;4324;42.012;24.872;2022-12-08T01:26:38;10.67;;;8.50;;
8572;SDS011;4324;42.012;24.872;2022-12-08T01:29:05;11.13;;;8.57;;
8572;SDS011;4324;42.012;24.872;2022-12-08T01:31:32;13.23;;;9.23;;
8572;SDS011;4324;42.012;24.872;2022-12-08T01:34:00;14.87;;;9.23;;
8572;SDS011;4324;42.012;24.872;2022-12-08T01:36:29;13.30;;;9.30;;
8572;SDS011;4324;42.012;24.872;2022-12-08T01:39:00;13.50;;;8.83;;
8572;SDS011;4324;42.012;24.872;2022-12-08T01:41:28;11.00;;;8.77;;
8572;SDS011;4324;42.012;24.872;2022-12-08T01:43:57;10.50;;;8.47;;
8572;SDS011;4324;42.012;24.872;2022-12-08T01:46:27;11.87;;;8.80;;
8572;SDS011;4324;42.012;24.872;2022-12-08T01:48:57;10.67;;;8.63;;
8572;SDS011;4324;42.012;24.872;2022-12-08T01:51:28;9.77;;;8.20;;
8572;SDS011;4324;42.012;24.872;2022-12-08T01:54:00;10.97;;;8.67;;
8572;SDS011;4324;42.012;24.872;2022-12-08T01:56:30;9.87;;;8.47;;
8572;SDS011;4324;42.012;24.872;2022-12-08T01:59:01;11.13;;;8.83;;
8572;SDS011;4324;42.012;24.872;2022-12-08T02:01:29;11.47;;;8.13;;
8572;SDS011;4324;42.012;24.872;2022-12-08T02:03:57;9.67;;;7.77;;
8572;SDS011;4324;42.012;24.872;2022-12-08T02:06:26;12.67;;;8.67;;
8572;SDS011;4324;42.012;24.872;2022-12-08T02:08:55;10.03;;;8.00;;
8572;SDS011;4324;42.012;24.872;2022-12-08T02:11:26;10.93;;;8.90;;
8572;SDS011;4324;42.012;24.872;2022-12-08T02:13:53;10.03;;;7.63;;
8572;SDS011;4324;42.012;24.872;2022-12-08T02:16:25;12.07;;;7.67;;
8572;SDS011;4324;42.012;24.872;2022-12-08T02:19:03;10.63;;;7.57;;
8572;SDS011;4324;42.012;24.872;2022-12-08T02:21:45;10.93;;;7.97;;
8572;SDS011;4324;42.012;24.872;2022-12-08T02:24:22;11.40;;;8.40;;
8572;SDS011;4324;42.012;24.872;2022-12-08T02:30:07;10.80;;;8.37;;
8572;SDS011;4324;42.012;24.872;2022-12-08T02:35:45;11.23;;;8.17;;
8572;SDS011;4324;42.012;24.872;2022-12-08T02:38:20;12.13;;;7.37;;
8572;SDS011;4324;42.012;24.872;2022-12-08T02:40:57;11.07;;;7.70;;
8572;SDS011;4324;42.012;24.872;2022-12-08T02:43:31;10.93;;;8.60;;
8572;SDS011;4324;42.012;24.872;2022-12-08T02:46:02;13.97;;;7.70;;
8572;SDS011;4324;42.012;24.872;2022-12-08T02:48:34;11.63;;;8.47;;
8572;SDS011;4324;42.012;24.872;2022-12-08T02:51:03;10.43;;;8.67;;
8572;SDS011;4324;42.012;24.872;2022-12-08T02:53:31;10.87;;;7.70;;
8572;SDS011;4324;42.012;24.872;2022-12-08T02:56:01;10.70;;;8.47;;
8572;SDS011;4324;42.012;24.872;2022-12-08T02:58:41;9.40;;;7.53;;
8572;SDS011;4324;42.012;24.872;2022-12-08T03:01:34;8.97;;;7.30;;
8572;SDS011;4324;42.012;24.872;2022-12-08T03:04:15;12.17;;;6.60;;
8572;SDS011;4324;42.012;24.872;2022-12-08T03:06:54;13.83;;;7.63;;
8572;SDS011;4324;42.012;24.872;2022-12-08T03:09:29;10.17;;;7.20;;
8572;SDS011;4324;42.012;24.872;2022-12-08T03:12:05;13.90;;;7.30;;
8572;SDS011;4324;42.012;24.872;2022-12-08T03:14:39;9.00;;;6.20;;
8572;SDS011;4324;42.012;24.872;2022-12-08T03:17:09;10.73;;;7.40;;
8572;SDS011;4324;42.012;24.872;2022-12-08T03:19:39;14.10;;;7.70;;
8572;SDS011;4324;42.012;24.872;2022-12-08T03:22:10;8.07;;;6.67;;
8572;SDS011;4324;42.012;24.872;2022-12-08T03:24:40;9.90;;;6.97;;
8572;SDS011;4324;42.012;24.872;2022-12-08T03:27:11;8.97;;;6.57;;
8572;SDS011;4324;42.012;24.872;2022-12-08T03:29:40;10.20;;;6.77;;
8572;SDS011;4324;42.012;24.872;2022-12-08T03:32:09;9.20;;;6.37;;
8572;SDS011;4324;42.012;24.872;2022-12-08T03:34:41;14.63;;;6.80;;
8572;SDS011;4324;42.012;24.872;2022-12-08T03:37:13;11.93;;;6.83;;
8572;SDS011;4324;42.012;24.872;2022-12-08T03:39:40;14.03;;;7.57;;
8572;SDS011;4324;42.012;24.872;2022-12-08T03:42:08;8.97;;;6.37;;
8572;SDS011;4324;42.012;24.872;2022-12-08T03:44:35;9.87;;;6.80;;
8572;SDS011;4324;42.012;24.872;2022-12-08T03:47:02;7.10;;;5.77;;
8572;SDS011;4324;42.012;24.872;2022-12-08T03:49:29;6.20;;;5.30;;
8572;SDS011;4324;42.012;24.872;2022-12-08T03:51:59;7.87;;;5.90;;
8572;SDS011;4324;42.012;24.872;2022-12-08T03:54:27;9.83;;;5.97;;
8572;SDS011;4324;42.012;24.872;2022-12-08T03:56:54;6.57;;;5.63;;
8572;SDS011;4324;42.012;24.872;2022-12-08T03:59:21;9.60;;;5.07;;
8572;SDS011;4324;42.012;24.872;2022-12-08T04:01:48;8.77;;;4.93;;
8572;SDS011;4324;42.012;24.872;2022-12-08T04:04:15;6.20;;;5.13;;
8572;SDS011;4324;42.012;24.872;2022-12-08T04:06:43;8.47;;;5.67;;
8572;SDS011;4324;42.012;24.872;2022-12-08T04:09:10;7.57;;;5.77;;
8572;SDS011;4324;42.012;24.872;2022-12-08T04:11:39;6.77;;;5.47;;
8572;SDS011;4324;42.012;24.872;2022-12-08T04:14:06;7.47;;;5.50;;
8572;SDS011;4324;42.012;24.872;2022-12-08T04:16:33;8.03;;;6.57;;
8572;SDS011;4324;42.012;24.872;2022-12-08T04:19:02;7.10;;;5.73;;
8572;SDS011;4324;42.012;24.872;2022-12-08T04:21:36;11.37;;;6.43;;
8572;SDS011;4324;42.012;24.872;2022-12-08T04:24:03;11.90;;;7.20;;
8572;SDS011;4324;42.012;24.872;2022-12-08T04:26:30;9.47;;;7.13;;
8572;SDS011;4324;42.012;24.872;2022-12-08T04:28:58;22.17;;;8.60;;
8572;SDS011;4324;42.012;24.872;2022-12-08T04:31:25;11.17;;;6.37;;
8572;SDS011;4324;42.012;24.872;2022-12-08T04:33:54;9.13;;;6.47;;
8572;SDS011;4324;42.012;24.872;2022-12-08T04:36:21;7.20;;;6.07;;
8572;SDS011;4324;42.012;24.872;2022-12-08T04:38:55;9.83;;;6.77;;
8572;SDS011;4324;42.012;24.872;2022-12-08T04:41:22;9.00;;;6.00;;
8572;SDS011;4324;42.012;24.872;2022-12-08T04:43:49;6.17;;;5.30;;
8572;SDS011;4324;42.012;24.872;2022-12-08T04:46:20;6.90;;;5.43;;
8572;SDS011;4324;42.012;24.872;2022-12-08T04:48:47;8.07;;;5.50;;
8572;SDS011;4324;42.012;24.872;2022-12-08T04:51:15;9.77;;;4.90;;
8572;SDS011;4324;42.012;24.872;2022-12-08T04:53:43;7.20;;;5.47;;
8572;SDS011;4324;42.012;24.872;2022-12-08T04:56:11;7.63;;;5.03;;
8572;SDS011;4324;42.012;24.872;2022-12-08T04:58:38;8.70;;;5.50;;
8572;SDS011;4324;42.012;24.872;2022-12-08T05:01:05;7.90;;;5.87;;
8572;SDS011;4324;42.012;24.872;2022-12-08T05:03:34;16.10;;;11.00;;
8572;SDS011;4324;42.012;24.872;2022-12-08T05:06:03;10.07;;;7.37;;
8572;SDS011;4324;42.012;24.872;2022-12-08T05:08:31;12.03;;;9.00;;
8572;SDS011;4324;42.012;24.872;2022-12-08T05:11:02;8.70;;;5.40;;
8572;SDS011;4324;42.012;24.872;2022-12-08T05:13:33;9.27;;;5.80;;
8572;SDS011;4324;42.012;24.872;2022-12-08T05:16:07;9.30;;;6.17;;
8572;SDS011;4324;42.012;24.872;2022-12-08T05:21:22;11.03;;;6.90;;
8572;SDS011;4324;42.012;24.872;2022-12-08T05:24:01;10.37;;;6.67;;
8572;SDS011;4324;42.012;24.872;2022-12-08T05:26:29;11.07;;;8.03;;
8572;SDS011;4324;42.012;24.872;2022-12-08T05:28:56;10.40;;;7.30;;
8572;SDS011;4324;42.012;24.872;2022-12-08T05:31:24;12.23;;;8.50;;
8572;SDS011;4324;42.012;24.872;2022-12-08T05:33:54;15.10;;;8.70;;
8572;SDS011;4324;42.012;24.872;2022-12-08T05:36:20;16.63;;;9.40;;
8572;SDS011;4324;42.012;24.872;2022-12-08T05:38:48;18.57;;;11.73;;
8572;SDS011;4324;42.012;24.872;2022-12-08T05:41:16;22.83;;;13.00;;
8572;SDS011;4324;42.012;24.872;2022-12-08T05:43:45;32.53;;;12.00;;
8572;SDS011;4324;42.012;24.872;2022-12-08T05:46:13;28.90;;;11.80;;
8572;SDS011;4324;42.012;24.872;2022-12-08T05:48:40;19.30;;;11.83;;
8572;SDS011;4324;42.012;24.872;2022-12-08T05:51:11;19.00;;;11.53;;
8572;SDS011;4324;42.012;24.872;2022-12-08T05:53:43;17.00;;;9.17;;
8572;SDS011;4324;42.012;24.872;2022-12-08T05:56:10;14.17;;;8.47;;
8572;SDS011;4324;42.012;24.872;2022-12-08T05:58:37;15.20;;;8.93;;
8572;SDS011;4324;42.012;24.872;2022-12-08T06:01:05;15.80;;;10.07;;
8572;SDS011;4324;42.012;24.872;2022-12-08T06:03:32;18.33;;;10.53;;
8572;SDS011;4324;42.012;24.872;2022-12-08T06:05:59;18.43;;;10.90;;
8572;SDS011;4324;42.012;24.872;2022-12-08T06:08:28;11.43;;;9.30;;
8572;SDS011;4324;42.012;24.872;2022-12-08T06:10:55;15.33;;;11.70;;
8572;SDS011;4324;42.012;24.872;2022-12-08T06:13:22;10.27;;;7.03;;
8572;SDS011;4324;42.012;24.872;2022-12-08T06:15:49;12.33;;;8.40;;
8572;SDS011;4324;42.012;24.872;2022-12-08T06:18:18;8.67;;;6.73;;
8572;SDS011;4324;42.012;24.872;2022-12-08T06:20:45;10.40;;;9.13;;
8572;SDS011;4324;42.012;24.872;2022-12-08T06:23:16;20.57;;;12.67;;
8572;SDS011;4324;42.012;24.872;2022-12-08T06:25:47;13.90;;;7.87;;
8572;SDS011;4324;42.012;24.872;2022-12-08T06:28:14;10.63;;;7.13;;
8572;SDS011;4324;42.012;24.872;2022-12-08T06:30:42;11.07;;;7.03;;
8572;SDS011;4324;42.012;24.872;2022-12-08T06:33:09;13.03;;;7.30;;
8572;SDS011;4324;42.012;24.872;2022-12-08T06:35:36;14.63;;;7.33;;
8572;SDS011;4324;42.012;24.872;2022-12-08T06:38:03;19.03;;;7.53;;
8572;SDS011;4324;42.012;24.872;2022-12-08T06:40:30;14.53;;;8.37;;
8572;SDS011;4324;42.012;24.872;2022-12-08T06:42:59;11.67;;;8.33;;
8572;SDS011;4324;42.012;24.872;2022-12-08T06:45:26;12.37;;;7.40;;
8572;SDS011;4324;42.012;24.872;2022-12-08T06:47:53;8.47;;;6.77;;
8572;SDS011;4324;42.012;24.872;2022-12-08T06:50:20;9.63;;;7.83;;
8572;SDS011;4324;42.012;24.872;2022-12-08T06:52:47;10.77;;;8.23;;
8572;SDS011;4324;42.012;24.872;2022-12-08T06:55:23;12.33;;;6.80;;
8572;SDS011;4324;42.012;24.872;2022-12-08T06:57:51;12.37;;;8.00;;
8572;SDS011;4324;42.012;24.872;2022-12-08T07:00:20;13.23;;;7.93;;
8572;SDS011;4324;42.012;24.872;2022-12-08T07:02:47;13.43;;;8.80;;
8572;SDS011;4324;42.012;24.872;2022-12-08T07:05:16;14.03;;;8.33;;
8572;SDS011;4324;42.012;24.872;2022-12-08T07:07:44;15.43;;;9.07;;
8572;SDS011;4324;42.012;24.872;2022-12-08T07:10:11;12.80;;;9.47;;
8572;SDS011;4324;42.012;24.872;2022-12-08T07:12:38;12.57;;;9.50;;
8572;SDS011;4324;42.012;24.872;2022-12-08T07:15:08;21.80;;;13.67;;
8572;SDS011;4324;42.012;24.872;2022-12-08T07:17:42;15.93;;;9.57;;
8572;SDS011;4324;42.012;24.872;2022-12-08T07:20:11;15.57;;;8.67;;
8572;SDS011;4324;42.012;24.872;2022-12-08T07:22:46;18.33;;;8.47;;
8572;SDS011;4324;42.012;24.872;2022-12-08T07:25:17;25.87;;;10.93;;
8572;SDS011;4324;42.012;24.872;2022-12-08T07:27:45;20.33;;;8.83;;
8572;SDS011;4324;42.012;24.872;2022-12-08T07:30:19;19.37;;;12.40;;
8572;SDS011;4324;42.012;24.872;2022-12-08T07:32:48;15.43;;;11.93;;
8572;SDS011;4324;42.012;24.872;2022-12-08T07:35:15;18.57;;;11.43;;
8572;SDS011;4324;42.012;24.872;2022-12-08T07:37:48;23.20;;;13.00;;
8572;SDS011;4324;42.012;24.872;2022-12-08T07:40:24;24.53;;;12.83;;
8572;SDS011;4324;42.012;24.872;2022-12-08T07:42:53;21.03;;;14.40;;
8572;SDS011;4324;42.012;24.872;2022-12-08T07:45:23;26.63;;;17.23;;
8572;SDS011;4324;42.012;24.872;2022-12-08T07:47:55;20.83;;;16.37;;
8572;SDS011;4324;42.012;24.872;2022-12-08T07:50:23;23.20;;;13.10;;
8572;SDS011;4324;42.012;24.872;2022-12-08T07:52:54;19.97;;;12.23;;
8572;SDS011;4324;42.012;24.872;2022-12-08T07:58:05;27.83;;;18.70;;
8572;SDS011;4324;42.012;24.872;2022-12-08T08:00:36;27.60;;;23.30;;
8572;SDS011;4324;42.012;24.872;2022-12-08T08:03:09;26.20;;;19.97;;
8572;SDS011;4324;42.012;24.872;2022-12-08T08:05:37;41.37;;;26.07;;
8572;SDS011;4324;42.012;24.872;2022-12-08T08:11:11;44.87;;;29.17;;
8572;SDS011;4324;42.012;24.872;2022-12-08T08:13:38;43.17;;;30.27;;
8572;SDS011;4324;42.012;24.872;2022-12-08T08:16:09;42.87;;;29.77;;
8572;SDS011;4324;42.012;24.872;2022-12-08T08:18:40;47.07;;;30.77;;
8572;SDS011;4324;42.012;24.872;2022-12-08T08:21:09;44.70;;;30.43;;
8572;SDS011;4324;42.012;24.872;2022-12-08T08:23:37;47.23;;;29.83;;
8572;SDS011;4324;42.012;24.872;2022-12-08T08:26:04;51.30;;;32.80;;
8572;SDS011;4324;42.012;24.872;2022-12-08T08:28:35;48.53;;;32.93;;
8572;SDS011;4324;42.012;24.872;2022-12-08T08:31:02;47.40;;;31.77;;
8572;SDS011;4324;42.012;24.872;2022-12-08T08:33:33;48.13;;;30.77;;
8572;SDS011;4324;42.012;24.872;2022-12-08T08:36:07;46.80;;;29.80;;
8572;SDS011;4324;42.012;24.872;2022-12-08T08:38:35;43.87;;;30.23;;
8572;SDS011;4324;42.012;24.872;2022-12-08T08:41:06;40.97;;;27.97;;
8572;SDS011;4324;42.012;24.872;2022-12-08T08:43:38;40.07;;;28.70;;
8572;SDS011;4324;42.012;24.872;2022-12-08T08:46:32;41.07;;;26.57;;
8572;SDS011;4324;42.012;24.872;2022-12-08T08:48:59;42.67;;;28.17;;
8572;SDS011;4324;42.012;24.872;2022-12-08T08:51:31;41.03;;;29.53;;
8572;SDS011;4324;42.012;24.872;2022-12-08T08:53:58;48.57;;;30.20;;
8572;SDS011;4324;42.012;24.872;2022-12-08T08:56:25;47.37;;;30.50;;
8572;SDS011;4324;42.012;24.872;2022-12-08T08:58:52;47.53;;;30.47;;
8572;SDS011;4324;42.012;24.872;2022-12-08T09:01:21;45.00;;;30.60;;
8572;SDS011;4324;42.012;24.872;2022-12-08T09:03:50;49.90;;;30.13;;
8572;SDS011;4324;42.012;24.872;2022-12-08T09:06:25;44.43;;;28.10;;
8572;SDS011;4324;42.012;24.872;2022-12-08T09:09:06;39.93;;;27.43;;
8572;SDS011;4324;42.012;24.872;2022-12-08T09:11:33;36.30;;;23.10;;
8572;SDS011;4324;42.012;24.872;2022-12-08T09:14:01;36.27;;;25.47;;
8572;SDS011;4324;42.012;24.872;2022-12-08T09:16:28;33.60;;;23.20;;
8572;SDS011;4324;42.012;24.872;2022-12-08T09:18:55;41.03;;;26.33;;
8572;SDS011;4324;42.012;24.872;2022-12-08T09:21:30;33.30;;;22.93;;
8572;SDS011;4324;42.012;24.872;2022-12-08T09:23:57;40.20;;;26.67;;
8572;SDS011;4324;42.012;24.872;2022-12-08T09:26:29;38.77;;;24.30;;
8572;SDS011;4324;42.012;24.872;2022-12-08T09:28:56;34.90;;;22.70;;
8572;SDS011;4324;42.012;24.872;2022-12-08T09:31:24;36.83;;;24.33;;
8572;SDS011;4324;42.012;24.872;2022-12-08T09:33:51;42.07;;;26.90;;
8572;SDS011;4324;42.012;24.872;2022-12-08T09:36:18;49.37;;;32.17;;
8572;SDS011;4324;42.012;24.872;2022-12-08T09:38:45;53.77;;;32.10;;
8572;SDS011;4324;42.012;24.872;2022-12-08T09:41:14;41.97;;;27.50;;
8572;SDS011;4324;42.012;24.872;2022-12-08T09:43:51;38.43;;;25.67;;
8572;SDS011;4324;42.012;24.872;2022-12-08T09:46:28;37.87;;;26.00;;
8572;SDS011;4324;42.012;24.872;2022-12-08T09:48:58;38.70;;;26.80;;
8572;SDS011;4324;42.012;24.872;2022-12-08T09:51:34;42.50;;;26.73;;
8572;SDS011;4324;42.012;24.872;2022-12-08T09:54:05;40.57;;;28.83;;
8572;SDS011;4324;42.012;24.872;2022-12-08T09:56:40;45.50;;;28.50;;
8572;SDS011;4324;42.012;24.872;2022-12-08T09:59:15;46.70;;;30.17;;
8572;SDS011;4324;42.012;24.872;2022-12-08T10:01:51;44.13;;;28.73;;
8572;SDS011;4324;42.012;24.872;2022-12-08T10:04:22;42.57;;;27.10;;
8572;SDS011;4324;42.012;24.872;2022-12-08T10:07:12;41.97;;;28.20;;
8572;SDS011;4324;42.012;24.872;2022-12-08T10:09:44;42.97;;;29.17;;
8572;SDS011;4324;42.012;24.872;2022-12-08T10:12:26;41.87;;;28.83;;
8572;SDS011;4324;42.012;24.872;2022-12-08T10:15:05;43.33;;;29.63;;
8572;SDS011;4324;42.012;24.872;2022-12-08T10:17:44;42.17;;;28.30;;
8572;SDS011;4324;42.012;24.872;2022-12-08T10:20:16;42.33;;;28.30;;
8572;SDS011;4324;42.012;24.872;2022-12-08T10:22:49;41.23;;;27.67;;
8572;SDS011;4324;42.012;24.872;2022-12-08T10:29:14;52.03;;;32.30;;
8572;SDS011;4324;42.012;24.872;2022-12-08T10:31:43;48.97;;;31.50;;
8572;SDS011;4324;42.012;24.872;2022-12-08T10:34:19;42.63;;;30.70;;
8572;SDS011;4324;42.012;24.872;2022-12-08T10:37:01;49.17;;;29.83;;
8572;SDS011;4324;42.012;24.872;2022-12-08T10:39:40;40.87;;;28.13;;
8572;SDS011;4324;42.012;24.872;2022-12-08T10:42:16;45.93;;;30.63;;
8572;SDS011;4324;42.012;24.872;2022-12-08T10:44:51;40.13;;;28.57;;
8572;SDS011;4324;42.012;24.872;2022-12-08T10:47:25;47.33;;;29.60;;
8572;SDS011;4324;42.012;24.872;2022-12-08T10:50:23;49.20;;;31.67;;
8572;SDS011;4324;42.012;24.872;2022-12-08T10:52:57;54.50;;;35.53;;
8572;SDS011;4324;42.012;24.872;2022-12-08T10:55:40;53.07;;;35.47;;
8572;SDS011;4324;42.012;24.872;2022-12-08T11:01:27;49.13;;;35.40;;
8572;SDS011;4324;42.012;24.872;2022-12-08T11:04:01;50.77;;;32.77;;
8572;SDS011;4324;42.012;24.872;2022-12-08T11:06:40;40.83;;;27.37;;
8572;SDS011;4324;42.012;24.872;2022-12-08T11:09:20;39.50;;;26.60;;
8572;SDS011;4324;42.012;24.872;2022-12-08T11:11:50;40.93;;;27.03;;
8572;SDS011;4324;42.012;24.872;2022-12-08T11:14:21;47.17;;;28.50;;
8572;SDS011;4324;42.012;24.872;2022-12-08T11:16:53;43.37;;;30.10;;
8572;SDS011;4324;42.012;24.872;2022-12-08T11:19:29;41.63;;;26.33;;
8572;SDS011;4324;42.012;24.872;2022-12-08T11:21:59;41.87;;;29.17;;
8572;SDS011;4324;42.012;24.872;2022-12-08T11:24:45;45.27;;;27.67;;
8572;SDS011;4324;42.012;24.872;2022-12-08T11:27:24;44.50;;;30.53;;
8572;SDS011;4324;42.012;24.872;2022-12-08T11:29:52;43.83;;;28.17;;
8572;SDS011;4324;42.012;24.872;2022-12-08T11:32:38;43.13;;;29.17;;
8572;SDS011;4324;42.012;24.872;2022-12-08T11:35:18;43.27;;;28.80;;
8572;SDS011;4324;42.012;24.872;2022-12-08T11:38:10;45.87;;;27.27;;
8572;SDS011;4324;42.012;24.872;2022-12-08T11:40:41;48.50;;;31.67;;
8572;SDS011;4324;42.012;24.872;2022-12-08T11:43:12;42.17;;;29.17;;
8572;SDS011;4324;42.012;24.872;2022-12-08T11:45:43;46.10;;;29.60;;
8572;SDS011;4324;42.012;24.872;2022-12-08T11:48:11;44.60;;;31.37;;
8572;SDS011;4324;42.012;24.872;2022-12-08T11:50:46;48.00;;;30.20;;
8572;SDS011;4324;42.012;24.872;2022-12-08T11:53:21;45.53;;;29.93;;
8572;SDS011;4324;42.012;24.872;2022-12-08T11:56:05;48.77;;;30.47;;
8572;SDS011;4324;42.012;24.872;2022-12-08T11:58:43;47.63;;;31.57;;
8572;SDS011;4324;42.012;24.872;2022-12-08T12:01:55;44.43;;;28.43;;
8572;SDS011;4324;42.012;24.872;2022-12-08T12:04:30;49.67;;;32.37;;
8572;SDS011;4324;42.012;24.872;2022-12-08T12:10:19;51.47;;;32.77;;
8572;SDS011;4324;42.012;24.872;2022-12-08T12:13:03;52.23;;;34.63;;
8572;SDS011;4324;42.012;24.872;2022-12-08T12:18:48;62.97;;;37.60;;
8572;SDS011;4324;42.012;24.872;2022-12-08T12:21:19;52.17;;;33.67;;
8572;SDS011;4324;42.012;24.872;2022-12-08T12:23:52;50.20;;;34.03;;
8572;SDS011;4324;42.012;24.872;2022-12-08T12:26:26;57.13;;;37.37;;
8572;SDS011;4324;42.012;24.872;2022-12-08T12:29:14;68.60;;;36.47;;
8572;SDS011;4324;42.012;24.872;2022-12-08T12:31:50;60.97;;;37.27;;
8572;SDS011;4324;42.012;24.872;2022-12-08T12:34:22;57.03;;;35.97;;
8572;SDS011;4324;42.012;24.872;2022-12-08T12:36:52;53.63;;;33.57;;
8572;SDS011;4324;42.012;24.872;2022-12-08T12:39:22;61.30;;;36.27;;
8572;SDS011;4324;42.012;24.872;2022-12-08T12:41:54;57.43;;;35.07;;
8572;SDS011;4324;42.012;24.872;2022-12-08T12:44:24;51.63;;;34.37;;
8572;SDS011;4324;42.012;24.872;2022-12-08T12:47:06;54.80;;;33.30;;
8572;SDS011;4324;42.012;24.872;2022-12-08T12:53:01;57.07;;;34.93;;
8572;SDS011;4324;42.012;24.872;2022-12-08T12:56:02;58.57;;;34.30;;
8572;SDS011;4324;42.012;24.872;2022-12-08T12:59:02;52.30;;;32.20;;
8572;SDS011;4324;42.012;24.872;2022-12-08T13:06:12;52.47;;;33.67;;
8572;SDS011;4324;42.012;24.872;2022-12-08T13:08:51;54.67;;;33.70;;
8572;SDS011;4324;42.012;24.872;2022-12-08T13:11:49;56.27;;;32.97;;
8572;SDS011;4324;42.012;24.872;2022-12-08T13:14:30;53.43;;;32.87;;
8572;SDS011;4324;42.012;24.872;2022-12-08T13:17:07;65.33;;;41.67;;
8572;SDS011;4324;42.012;24.872;2022-12-08T13:19:39;51.90;;;30.47;;
8572;SDS011;4324;42.012;24.872;2022-12-08T13:28:23;57.87;;;35.63;;
8572;SDS011;4324;42.012;24.872;2022-12-08T13:30:58;51.53;;;32.90;;
8572;SDS011;4324;42.012;24.872;2022-12-08T13:33:27;57.60;;;35.50;;
8572;SDS011;4324;42.012;24.872;2022-12-08T13:36:14;55.63;;;33.47;;
8572;SDS011;4324;42.012;24.872;2022-12-08T13:38:51;54.40;;;33.57;;
8572;SDS011;4324;42.012;24.872;2022-12-08T13:41:27;57.03;;;31.33;;
8572;SDS011;4324;42.012;24.872;2022-12-08T13:43:59;49.00;;;29.87;;
8572;SDS011;4324;42.012;24.872;2022-12-08T13:46:33;52.70;;;33.60;;
8572;SDS011;4324;42.012;24.872;2022-12-08T13:49:10;49.33;;;31.07;;
8572;SDS011;4324;42.012;24.872;2022-12-08T13:51:58;53.43;;;33.43;;
8572;SDS011;4324;42.012;24.872;2022-12-08T13:54:35;52.90;;;33.67;;
8572;SDS011;4324;42.012;24.872;2022-12-08T13:57:15;54.80;;;31.30;;
8572;SDS011;4324;42.012;24.872;2022-12-08T14:00:05;57.43;;;35.30;;
8572;SDS011;4324;42.012;24.872;2022-12-08T14:02:50;56.10;;;34.00;;
8572;SDS011;4324;42.012;24.872;2022-12-08T14:05:37;66.67;;;35.87;;
8572;SDS011;4324;42.012;24.872;2022-12-08T14:08:08;56.43;;;31.30;;
8572;SDS011;4324;42.012;24.872;2022-12-08T14:14:00;51.07;;;32.00;;
8572;SDS011;4324;42.012;24.872;2022-12-08T14:16:38;59.23;;;33.20;;
8572;SDS011;4324;42.012;24.872;2022-12-08T14:19:16;54.00;;;33.37;;
8572;SDS011;4324;42.012;24.872;2022-12-08T14:21:46;62.90;;;37.03;;
8572;SDS011;4324;42.012;24.872;2022-12-08T14:24:23;61.67;;;35.17;;
8572;SDS011;4324;42.012;24.872;2022-12-08T14:27:18;66.67;;;35.30;;
8572;SDS011;4324;42.012;24.872;2022-12-08T14:29:47;58.13;;;35.07;;
8572;SDS011;4324;42.012;24.872;2022-12-08T14:32:26;61.00;;;33.90;;
8572;SDS011;4324;42.012;24.872;2022-12-08T14:35:01;57.07;;;33.23;;
8572;SDS011;4324;42.012;24.872;2022-12-08T14:37:40;62.40;;;33.93;;
8572;SDS011;4324;42.012;24.872;2022-12-08T14:40:57;74.87;;;38.97;;
8572;SDS011;4324;42.012;24.872;2022-12-08T14:47:07;57.47;;;33.60;;
8572;SDS011;4324;42.012;24.872;2022-12-08T14:49:40;49.53;;;32.43;;
8572;SDS011;4324;42.012;24.872;2022-12-08T14:52:48;44.40;;;26.87;;
8572;SDS011;4324;42.012;24.872;2022-12-08T14:55:18;38.63;;;24.80;;
8572;SDS011;4324;42.012;24.872;2022-12-08T15:01:01;53.10;;;30.87;;
8572;SDS011;4324;42.012;24.872;2022-12-08T15:03:34;58.10;;;32.70;;
8572;SDS011;4324;42.012;24.872;2022-12-08T15:06:03;59.53;;;35.10;;
8572;SDS011;4324;42.012;24.872;2022-12-08T15:11:29;68.77;;;33.93;;
8572;SDS011;4324;42.012;24.872;2022-12-08T15:14:26;61.73;;;36.03;;
8572;SDS011;4324;42.012;24.872;2022-12-08T15:16:57;61.63;;;34.63;;
8572;SDS011;4324;42.012;24.872;2022-12-08T15:19:27;42.90;;;26.10;;
8572;SDS011;4324;42.012;24.872;2022-12-08T15:22:16;46.23;;;27.70;;
8572;SDS011;4324;42.012;24.872;2022-12-08T15:24:48;49.33;;;31.63;;
8572;SDS011;4324;42.012;24.872;2022-12-08T15:27:16;55.87;;;33.47;;
8572;SDS011;4324;42.012;24.872;2022-12-08T15:29:48;57.57;;;35.60;;
8572;SDS011;4324;42.012;24.872;2022-12-08T15:32:17;53.87;;;32.27;;
8572;SDS011;4324;42.012;24.872;2022-12-08T15:34:50;55.27;;;33.33;;
8572;SDS011;4324;42.012;24.872;2022-12-08T15:37:18;42.40;;;27.03;;
8572;SDS011;4324;42.012;24.872;2022-12-08T15:39:50;38.87;;;24.07;;
8572;SDS011;4324;42.012;24.872;2022-12-08T15:42:17;47.23;;;30.97;;
8572;SDS011;4324;42.012;24.872;2022-12-08T15:44:44;51.30;;;33.93;;
8572;SDS011;4324;42.012;24.872;2022-12-08T15:47:13;72.27;;;37.00;;
8572;SDS011;4324;42.012;24.872;2022-12-08T15:49:55;58.10;;;34.90;;
8572;SDS011;4324;42.012;24.872;2022-12-08T15:52:28;56.00;;;33.30;;
8572;SDS011;4324;42.012;24.872;2022-12-08T15:54:57;49.13;;;30.67;;
8572;SDS011;4324;42.012;24.872;2022-12-08T15:57:26;52.37;;;33.13;;
8572;SDS011;4324;42.012;24.872;2022-12-08T16:00:02;38.23;;;25.43;;
8572;SDS011;4324;42.012;24.872;2022-12-08T16:03:38;46.87;;;31.30;;
8572;SDS011;4324;42.012;24.872;2022-12-08T16:06:04;51.33;;;31.40;;